Time;durP1;ratioP1;P1;durP2;ratioP2;P2;SDS_P1;SDS_P2;PMS_P1;PMS_P2;Temp;Humidity;BMP_temperature;BMP_pressure;BME280_temperature;BME280_humidity;BME280_pressure;Samples;Min_cycle;Max_cycle;Signal;HPM_P1;HPM_P2
2021/09/26 00:01:42;;;;;;;11.63;10.03;;;;;;;19.03;80.52;100349.59;5010278;28;20440;-76
2021/09/26 00:04:08;;;;;;;11.02;9.93;;;;;;;18.99;80.67;100354.06;4998170;28;20415;-77
2021/09/26 00:06:33;;;;;;;11.27;10.07;;;;;;;18.95;80.39;100351.13;4992240;28;20491;-76
2021/09/26 00:08:58;;;;;;;11.43;10.37;;;;;;;18.95;80.52;100344.81;4993290;28;20753;-77
2021/09/26 00:11:24;;;;;;;10.23;9.32;;;;;;;18.94;80.61;100346.72;5003191;28;20859;-77
2021/09/26 00:13:50;;;;;;;15.40;10.60;;;;;;;18.95;80.53;100353.03;5002880;28;20447;-76
2021/09/26 00:16:16;;;;;;;11.20;10.10;;;;;;;18.95;80.87;100345.63;5010815;28;20451;-77
2021/09/26 00:18:41;;;;;;;12.18;10.15;;;;;;;18.95;80.79;100339.31;4991010;28;20915;-76
2021/09/26 00:21:06;;;;;;;10.97;9.70;;;;;;;18.92;80.87;100335.25;5006171;28;20878;-76
2021/09/26 00:23:32;;;;;;;12.75;10.15;;;;;;;18.90;80.96;100331.97;5012260;28;20396;-76
2021/09/26 00:25:59;;;;;;;11.93;10.77;;;;;;;18.90;81.32;100331.19;5014243;28;20412;-76
2021/09/26 00:28:25;;;;;;;11.30;10.27;;;;;;;18.86;80.85;100330.97;4998056;28;20438;-76
2021/09/26 00:30:51;;;;;;;14.23;10.68;;;;;;;18.81;80.76;100322.81;5008007;28;20399;-77
2021/09/26 00:33:16;;;;;;;11.40;10.25;;;;;;;18.78;80.72;100319.84;5005473;28;20461;-77
2021/09/26 00:35:42;;;;;;;12.43;11.13;;;;;;;18.74;80.84;100316.09;5013550;28;20756;-76
2021/09/26 00:38:08;;;;;;;11.30;10.20;;;;;;;18.73;81.02;100320.78;5002421;28;20393;-76
2021/09/26 00:40:34;;;;;;;12.85;10.85;;;;;;;18.70;80.53;100318.63;5014484;28;20415;-76
2021/09/26 00:42:59;;;;;;;14.25;10.45;;;;;;;18.67;80.50;100327.47;5012962;28;20405;-76
2021/09/26 00:45:25;;;;;;;11.77;10.60;;;;;;;18.65;80.84;100335.19;5001128;28;20407;-76
2021/09/26 00:47:50;;;;;;;11.43;10.30;;;;;;;18.61;80.39;100332.22;5008897;28;20408;-77
2021/09/26 00:50:17;;;;;;;10.83;9.83;;;;;;;18.59;80.62;100323.50;4992241;28;20934;-76
2021/09/26 00:52:46;;;;;;;11.80;10.60;;;;;;;18.56;80.47;100326.84;5001561;28;20551;-77
2021/09/26 00:55:12;;;;;;;11.70;10.13;;;;;;;18.54;80.61;100340.03;5013106;28;20409;-76
2021/09/26 00:57:40;;;;;;;13.98;10.50;;;;;;;18.53;80.56;100329.38;5014418;28;20536;-76
2021/09/26 01:00:06;;;;;;;13.00;11.65;;;;;;;18.51;80.57;100335.13;4996391;28;20388;-76
2021/09/26 01:02:31;;;;;;;12.20;11.13;;;;;;;18.52;81.13;100335.97;5009264;28;20423;-76
2021/09/26 01:04:57;;;;;;;13.30;11.37;;;;;;;18.52;81.57;100327.72;5013290;28;20879;-76
2021/09/26 01:07:34;;;;;;;11.70;10.50;;;;;;;18.51;80.69;100337.06;4998433;28;20421;-76
2021/09/26 01:10:12;;;;;;;11.20;10.15;;;;;;;18.50;80.47;100335.47;5011962;28;20409;-76
2021/09/26 01:12:40;;;;;;;10.68;9.68;;;;;;;18.48;80.25;100332.16;4995850;28;20420;-76
2021/09/26 01:15:24;;;;;;;10.02;9.23;;;;;;;18.45;80.38;100327.25;5013708;28;20416;-76
2021/09/26 01:18:02;;;;;;;9.65;8.73;;;;;;;18.41;80.05;100332.53;5011975;28;20462;-76
2021/09/26 01:20:35;;;;;;;9.70;8.80;;;;;;;18.35;79.97;100331.00;4999887;28;20409;-76
2021/09/26 01:23:08;;;;;;;9.32;8.52;;;;;;;18.31;80.01;100334.66;5012629;28;20462;-76
2021/09/26 01:26:19;;;;;;;11.10;9.18;;;;;;;18.22;79.95;100337.25;5005051;28;20764;-76
2021/09/26 01:29:32;;;;;;;10.18;9.18;;;;;;;18.19;80.25;100334.28;4989051;28;20991;-76
2021/09/26 01:32:03;;;;;;;9.30;8.50;;;;;;;18.12;80.17;100327.25;4943640;28;20413;-77
2021/09/26 01:34:47;;;;;;;10.52;9.43;;;;;;;18.09;80.32;100338.00;4955021;28;20478;-76
2021/09/26 01:37:25;;;;;;;10.05;9.07;;;;;;;18.07;80.47;100340.22;4990413;28;20443;-76
2021/09/26 01:40:26;;;;;;;10.77;9.68;;;;;;;18.08;80.47;100330.88;5015833;28;20404;-76
2021/09/26 01:42:55;;;;;;;10.88;9.05;;;;;;;18.06;80.49;100325.69;4999000;28;20408;-77
2021/09/26 01:45:33;;;;;;;10.27;9.18;;;;;;;18.06;80.33;100330.34;4984920;28;20412;-76
2021/09/26 01:48:10;;;;;;;10.02;9.18;;;;;;;18.03;80.16;100333.69;5012757;28;20796;-76
2021/09/26 01:50:36;;;;;;;10.50;9.50;;;;;;;18.00;80.20;100334.28;4988204;28;20397;-76
2021/09/26 01:53:03;;;;;;;9.95;9.00;;;;;;;17.98;80.30;100336.53;5011431;28;20408;-76
2021/09/26 01:55:29;;;;;;;10.10;9.10;;;;;;;17.98;80.22;100342.00;4995121;28;20533;-76
2021/09/26 01:57:57;;;;;;;11.05;10.05;;;;;;;17.99;80.16;100343.63;5001843;28;20499;-76
2021/09/26 02:00:23;;;;;;;11.10;9.00;;;;;;;17.97;80.01;100343.94;4987134;28;20409;-76
2021/09/26 02:02:49;;;;;;;10.50;9.50;;;;;;;17.96;80.15;100338.72;5012388;28;20803;-76
2021/09/26 02:05:18;;;;;;;10.85;9.85;;;;;;;17.94;80.26;100341.78;5010141;28;20392;-76
2021/09/26 02:07:45;;;;;;;9.95;8.95;;;;;;;17.92;80.02;100351.41;5011223;28;20415;-76
2021/09/26 02:10:13;;;;;;;9.90;8.82;;;;;;;17.92;80.51;100359.63;4994442;28;20488;-76
2021/09/26 02:12:39;;;;;;;9.88;8.52;;;;;;;17.93;80.21;100355.78;5008211;28;20417;-76
2021/09/26 02:15:07;;;;;;;9.07;8.27;;;;;;;17.93;79.88;100358.53;5001386;28;20420;-76
2021/09/26 02:17:33;;;;;;;10.38;8.77;;;;;;;17.91;79.97;100368.97;4990733;28;20403;-76
2021/09/26 02:20:00;;;;;;;9.40;8.60;;;;;;;17.88;79.78;100356.66;5012038;28;20403;-76
2021/09/26 02:22:31;;;;;;;9.88;8.98;;;;;;;17.85;79.59;100357.25;5012424;28;20405;-76
2021/09/26 02:25:01;;;;;;;10.35;9.25;;;;;;;17.82;79.66;100354.28;5012093;28;20414;-76
2021/09/26 02:27:27;;;;;;;11.02;9.68;;;;;;;17.77;79.93;100351.63;5008533;28;20404;-76
2021/09/26 02:29:54;;;;;;;9.77;8.85;;;;;;;17.73;79.76;100347.84;5009870;28;20436;-77
2021/09/26 02:32:19;;;;;;;10.68;9.45;;;;;;;17.68;79.47;100348.75;4987517;28;20417;-76
2021/09/26 02:34:44;;;;;;;9.70;8.70;;;;;;;17.65;79.77;100343.81;5006468;28;20842;-76
2021/09/26 02:37:10;;;;;;;9.53;8.70;;;;;;;17.63;79.99;100338.66;5011595;28;20397;-76
2021/09/26 02:39:36;;;;;;;9.57;8.57;;;;;;;17.62;80.35;100337.00;5012464;28;20428;-76
2021/09/26 02:42:20;;;;;;;10.40;9.02;;;;;;;17.60;80.03;100336.50;4978476;28;20747;-76
2021/09/26 02:44:52;;;;;;;9.65;8.73;;;;;;;17.58;80.03;100340.66;5011015;28;20427;-76
2021/09/26 02:47:23;;;;;;;9.30;8.40;;;;;;;17.59;80.21;100332.13;5000223;28;20956;-76
2021/09/26 02:49:49;;;;;;;9.57;8.57;;;;;;;17.55;79.92;100339.28;5008593;28;20451;-76
2021/09/26 02:52:15;;;;;;;9.40;8.47;;;;;;;17.54;79.90;100339.56;4996361;28;20404;-76
2021/09/26 02:54:42;;;;;;;8.45;7.72;;;;;;;17.51;80.06;100335.50;5011027;28;20417;-76
2021/09/26 02:57:09;;;;;;;8.85;7.90;;;;;;;17.52;79.86;100342.59;5009971;28;20409;-76
2021/09/26 02:59:38;;;;;;;11.32;8.43;;;;;;;17.50;79.67;100338.50;5011142;28;20401;-76
2021/09/26 03:02:05;;;;;;;8.33;7.53;;;;;;;17.50;79.94;100341.25;5011788;28;20787;-75
2021/09/26 03:04:30;;;;;;;8.75;8.00;;;;;;;17.52;80.00;100331.63;5009323;28;20447;-76
2021/09/26 03:06:56;;;;;;;8.73;7.93;;;;;;;17.53;79.96;100329.69;5011283;28;20817;-76
2021/09/26 03:09:21;;;;;;;13.48;8.65;;;;;;;17.50;79.88;100335.78;5010841;28;20500;-76
2021/09/26 03:11:47;;;;;;;9.00;8.30;;;;;;;17.51;80.07;100340.16;5011316;28;20417;-76
2021/09/26 03:14:12;;;;;;;8.00;7.20;;;;;;;17.52;79.62;100336.28;5012074;28;20412;-76
2021/09/26 03:16:38;;;;;;;8.60;7.80;;;;;;;17.53;79.08;100337.91;5007795;28;20440;-76
2021/09/26 03:19:03;;;;;;;8.27;7.17;;;;;;;17.52;78.98;100334.38;4992911;28;20404;-76
2021/09/26 03:21:29;;;;;;;8.50;7.57;;;;;;;17.48;78.89;100327.84;5011112;28;20397;-76
2021/09/26 03:23:55;;;;;;;9.50;8.60;;;;;;;17.43;78.40;100322.44;5011473;28;20426;-76
2021/09/26 03:26:21;;;;;;;10.20;7.78;;;;;;;17.39;78.09;100329.59;5006211;28;20768;-77
2021/09/26 03:28:46;;;;;;;9.95;7.80;;;;;;;17.33;78.08;100329.94;4992661;28;20429;-77
2021/09/26 03:31:11;;;;;;;9.47;8.07;;;;;;;17.27;77.83;100321.00;5019030;28;20407;-75
2021/09/26 03:33:37;;;;;;;8.95;8.07;;;;;;;17.25;78.17;100325.13;5001575;28;20502;-76
2021/09/26 03:36:03;;;;;;;8.43;7.73;;;;;;;17.21;78.42;100327.63;5021317;28;20409;-77
2021/09/26 03:38:28;;;;;;;8.32;7.63;;;;;;;17.21;78.21;100332.28;5006917;28;20445;-76
2021/09/26 03:40:54;;;;;;;7.80;6.60;;;;;;;17.19;77.96;100327.09;5015328;28;20413;-76
2021/09/26 03:43:19;;;;;;;11.37;7.50;;;;;;;17.16;77.56;100324.16;5010161;28;20413;-76
2021/09/26 03:45:50;;;;;;;9.53;7.27;;;;;;;17.11;77.36;100327.75;5014597;28;20851;-75
2021/09/26 03:48:19;;;;;;;8.85;7.28;;;;;;;17.06;77.22;100328.63;5000631;28;20822;-76
2021/09/26 03:50:44;;;;;;;7.95;7.05;;;;;;;17.02;77.36;100322.13;5019997;28;20945;-76
2021/09/26 03:53:09;;;;;;;9.10;7.27;;;;;;;16.95;77.61;100321.63;5008056;28;20420;-76
2021/09/26 03:55:35;;;;;;;7.68;6.88;;;;;;;16.91;77.82;100326.06;5013948;28;20544;-76
2021/09/26 03:58:00;;;;;;;7.13;6.50;;;;;;;16.82;77.82;100318.75;5014569;28;20492;-76
2021/09/26 04:00:25;;;;;;;8.90;6.73;;;;;;;16.76;78.48;100326.19;5012690;28;20496;-76
2021/09/26 04:02:50;;;;;;;8.37;7.30;;;;;;;16.76;78.74;100317.19;5012807;28;20397;-76
2021/09/26 04:05:16;;;;;;;10.60;7.47;;;;;;;16.78;78.52;100325.91;5018315;28;20409;-76
2021/09/26 04:07:41;;;;;;;7.53;6.33;;;;;;;16.78;78.61;100325.91;5014058;28;20407;-76
2021/09/26 04:10:08;;;;;;;12.97;6.63;;;;;;;16.79;78.21;100320.16;5014383;28;20911;-76
2021/09/26 04:12:34;;;;;;;7.05;6.13;;;;;;;16.82;78.17;100307.81;5012872;28;20455;-76
2021/09/26 04:14:59;;;;;;;6.72;6.13;;;;;;;16.82;78.27;100305.91;4995746;28;20860;-77
2021/09/26 04:17:24;;;;;;;8.18;6.70;;;;;;;16.81;78.46;100306.19;5026752;28;20480;-76
2021/09/26 04:19:50;;;;;;;9.33;6.17;;;;;;;16.79;78.69;100306.47;5013847;28;20405;-75
2021/09/26 04:22:15;;;;;;;7.60;6.20;;;;;;;16.81;78.73;100308.91;5021622;28;20407;-75
2021/09/26 04:24:40;;;;;;;9.77;6.47;;;;;;;16.82;78.96;100303.16;5002550;28;20409;-75
2021/09/26 04:27:06;;;;;;;6.67;6.07;;;;;;;16.82;79.04;100296.88;5013542;28;20959;-75
2021/09/26 04:29:31;;;;;;;7.97;6.67;;;;;;;16.80;78.98;100293.59;4993724;28;20432;-74
2021/09/26 04:31:56;;;;;;;6.53;6.00;;;;;;;16.82;78.86;100288.66;5012452;28;20420;-75
2021/09/26 04:34:26;;;;;;;6.93;6.07;;;;;;;16.82;78.98;100285.94;5013619;28;20775;-76
2021/09/26 04:36:51;;;;;;;7.57;6.85;;;;;;;16.81;79.32;100290.56;5013430;28;20767;-75
2021/09/26 04:39:17;;;;;;;10.32;7.15;;;;;;;16.79;79.41;100297.47;5016247;28;20417;-75
2021/09/26 04:41:42;;;;;;;7.40;6.57;;;;;;;16.75;79.41;100290.91;5012929;28;20887;-75
2021/09/26 04:44:07;;;;;;;7.70;6.97;;;;;;;16.73;79.72;100293.94;5012600;28;20903;-78
2021/09/26 04:46:33;;;;;;;7.27;6.60;;;;;;;16.70;79.50;100289.03;5011734;28;20789;-77
2021/09/26 04:48:58;;;;;;;15.60;7.40;;;;;;;16.69;79.88;100294.81;4994295;28;20416;-78
2021/09/26 04:51:23;;;;;;;7.63;6.93;;;;;;;16.68;79.65;100296.72;5012747;28;20855;-78
2021/09/26 04:53:49;;;;;;;10.00;6.57;;;;;;;16.68;79.60;100295.91;4996350;28;20405;-78
2021/09/26 04:56:14;;;;;;;6.67;6.07;;;;;;;16.67;79.41;100291.53;5011758;28;20441;-77
2021/09/26 04:58:39;;;;;;;7.07;6.18;;;;;;;16.66;79.38;100298.94;5008505;28;20421;-78
2021/09/26 05:01:05;;;;;;;8.70;7.87;;;;;;;16.69;78.99;100308.50;5027986;28;20433;-78
2021/09/26 05:03:30;;;;;;;8.03;7.23;;;;;;;16.67;79.14;100316.16;5022548;28;20406;-78
2021/09/26 05:05:55;;;;;;;8.70;8.00;;;;;;;16.63;79.22;100309.66;5021407;28;20487;-77
2021/09/26 05:08:21;;;;;;;37.13;8.67;;;;;;;16.62;79.40;100317.03;5028681;28;20419;-77
2021/09/26 05:10:46;;;;;;;9.23;7.63;;;;;;;16.62;79.39;100322.53;5003579;28;20423;-77
2021/09/26 05:13:11;;;;;;;8.77;6.53;;;;;;;16.60;79.43;100316.50;4995617;28;20409;-77
2021/09/26 05:15:37;;;;;;;7.27;6.67;;;;;;;16.58;79.27;100313.25;5020118;28;20436;-77
2021/09/26 05:18:02;;;;;;;10.35;6.70;;;;;;;16.57;79.19;100312.44;5024165;28;20415;-77
2021/09/26 05:20:27;;;;;;;7.10;6.40;;;;;;;16.54;79.09;100314.88;5019929;28;20498;-77
2021/09/26 05:22:53;;;;;;;7.20;6.50;;;;;;;16.53;78.61;100318.75;5013839;28;20397;-77
2021/09/26 05:25:19;;;;;;;10.20;6.73;;;;;;;16.49;78.75;100315.78;5015091;28;20414;-76
2021/09/26 05:27:45;;;;;;;7.33;6.10;;;;;;;16.50;79.03;100313.81;5021271;28;20420;-77
2021/09/26 05:30:11;;;;;;;6.37;5.83;;;;;;;16.50;79.15;100330.22;5017840;28;20412;-77
2021/09/26 05:32:37;;;;;;;6.57;6.07;;;;;;;16.51;79.27;100334.63;5019330;28;20934;-77
2021/09/26 05:35:03;;;;;;;8.13;6.63;;;;;;;16.52;79.24;100330.78;5021798;28;20416;-77
2021/09/26 05:37:28;;;;;;;7.63;6.88;;;;;;;16.52;79.39;100319.84;5008123;28;20471;-77
2021/09/26 05:39:53;;;;;;;8.10;7.03;;;;;;;16.54;79.60;100306.69;4999940;28;20981;-77
2021/09/26 05:42:19;;;;;;;10.65;6.60;;;;;;;16.58;79.52;100313.25;5006608;28;20413;-77
2021/09/26 05:44:44;;;;;;;9.37;6.50;;;;;;;16.62;79.86;100327.16;5017976;28;20429;-77
2021/09/26 05:47:09;;;;;;;7.97;6.00;;;;;;;16.68;79.13;100335.03;5019922;28;20516;-77
2021/09/26 05:49:38;;;;;;;8.43;6.17;;;;;;;16.75;79.14;100348.38;5015931;28;20936;-78
2021/09/26 05:52:06;;;;;;;6.80;6.15;;;;;;;16.81;78.93;100342.56;5014206;28;20486;-77
2021/09/26 05:54:32;;;;;;;6.70;6.18;;;;;;;16.89;78.31;100343.88;4992373;28;20441;-77
2021/09/26 05:56:57;;;;;;;8.90;6.05;;;;;;;16.90;78.46;100332.63;5003383;28;20498;-77
2021/09/26 05:59:22;;;;;;;7.10;6.43;;;;;;;16.86;78.41;100330.78;5012154;28;20401;-77
2021/09/26 06:01:48;;;;;;;8.87;6.43;;;;;;;16.88;78.83;100339.50;5010735;28;20401;-77
2021/09/26 06:04:13;;;;;;;8.57;5.97;;;;;;;16.92;78.49;100346.84;5013580;28;20444;-77
2021/09/26 06:06:38;;;;;;;7.18;5.82;;;;;;;16.97;78.30;100352.25;5011176;28;20416;-77
2021/09/26 06:09:04;;;;;;;6.37;5.20;;;;;;;17.01;77.19;100350.59;5011495;28;20430;-77
2021/09/26 06:11:29;;;;;;;6.30;5.67;;;;;;;17.07;76.77;100356.81;5008909;28;20420;-77
2021/09/26 06:13:54;;;;;;;5.77;5.27;;;;;;;17.09;76.48;100354.63;4977965;28;20566;-77
2021/09/26 06:16:20;;;;;;;6.07;5.57;;;;;;;17.12;76.63;100360.31;4995421;28;20416;-77
2021/09/26 06:18:45;;;;;;;7.73;5.23;;;;;;;17.15;76.50;100360.84;5007260;28;20416;-77
2021/09/26 06:21:10;;;;;;;6.17;5.37;;;;;;;17.15;76.55;100360.84;4992401;28;20908;-77
2021/09/26 06:23:35;;;;;;;6.10;5.50;;;;;;;17.15;77.13;100349.91;4988424;28;20413;-77
2021/09/26 06:26:01;;;;;;;6.30;5.80;;;;;;;17.17;77.59;100350.41;5010348;28;20400;-77
2021/09/26 06:28:26;;;;;;;7.20;5.90;;;;;;;17.21;77.72;100363.25;5011852;28;20422;-77
2021/09/26 06:30:51;;;;;;;6.40;5.60;;;;;;;17.31;77.37;100360.38;5007963;28;20497;-77
2021/09/26 06:33:17;;;;;;;6.70;5.77;;;;;;;17.41;76.87;100360.28;5004680;28;20422;-77
2021/09/26 06:35:42;;;;;;;6.22;5.60;;;;;;;17.41;76.91;100371.22;5011245;28;20413;-77
2021/09/26 06:38:08;;;;;;;7.30;5.50;;;;;;;17.40;77.00;100377.81;5013413;28;20423;-77
2021/09/26 06:40:33;;;;;;;6.00;5.47;;;;;;;17.42;77.36;100383.00;5008383;28;20420;-77
2021/09/26 06:42:59;;;;;;;7.10;6.07;;;;;;;17.48;77.73;100381.84;5010593;28;20455;-77
2021/09/26 06:45:24;;;;;;;8.20;6.27;;;;;;;17.57;78.30;100382.84;5007541;28;20805;-78
2021/09/26 06:47:50;;;;;;;9.25;5.70;;;;;;;17.68;78.15;100373.41;5017085;28;20399;-77
2021/09/26 06:50:15;;;;;;;6.53;5.43;;;;;;;17.76;78.22;100378.22;5018010;28;20751;-74
2021/09/26 06:52:40;;;;;;;7.40;5.80;;;;;;;17.79;77.99;100376.81;5016352;28;20404;-76
2021/09/26 06:55:06;;;;;;;6.30;5.23;;;;;;;17.78;78.21;100373.28;4999148;28;20410;-76
2021/09/26 06:57:32;;;;;;;7.03;5.45;;;;;;;17.77;78.32;100360.66;5025369;28;20410;-74
2021/09/26 06:59:57;;;;;;;6.43;5.27;;;;;;;17.73;78.74;100372.50;5004831;28;20423;-75
2021/09/26 07:02:23;;;;;;;10.03;4.90;;;;;;;17.76;78.64;100380.13;5018373;28;20438;-78
2021/09/26 07:04:53;;;;;;;5.30;4.90;;;;;;;17.77;78.38;100382.59;5011641;28;20416;-79
2021/09/26 07:07:22;;;;;;;7.40;6.00;;;;;;;17.78;78.64;100386.97;4998432;28;20436;-77
2021/09/26 07:09:49;;;;;;;6.57;5.63;;;;;;;17.79;78.84;100390.50;5006712;28;20547;-76
2021/09/26 07:12:15;;;;;;;5.40;4.75;;;;;;;17.79;78.71;100396.81;5016075;28;20939;-76
2021/09/26 07:14:40;;;;;;;8.05;5.72;;;;;;;17.81;78.88;100402.00;4979346;28;20418;-76
2021/09/26 07:17:05;;;;;;;6.20;5.43;;;;;;;17.83;78.91;100406.09;4980579;28;20407;-76
2021/09/26 07:19:30;;;;;;;7.03;5.43;;;;;;;17.85;78.92;100405.81;4980925;28;20412;-77
2021/09/26 07:21:56;;;;;;;8.03;5.30;;;;;;;17.89;78.99;100407.66;4958273;28;20435;-77
2021/09/26 07:24:21;;;;;;;8.30;5.63;;;;;;;17.93;78.86;100416.09;4979545;28;20408;-77
2021/09/26 07:26:46;;;;;;;7.80;5.40;;;;;;;17.98;79.27;100419.56;4965142;28;20931;-77
2021/09/26 07:29:12;;;;;;;8.57;5.63;;;;;;;18.01;79.09;100440.13;4971724;28;20490;-77
2021/09/26 07:31:37;;;;;;;6.60;5.63;;;;;;;18.02;79.18;100437.06;4973793;28;20412;-77
2021/09/26 07:34:03;;;;;;;7.22;5.70;;;;;;;18.01;79.30;100438.19;4978365;28;20902;-77
2021/09/26 07:36:29;;;;;;;7.93;6.00;;;;;;;18.00;79.43;100454.94;4971821;28;20446;-77
2021/09/26 07:38:54;;;;;;;6.47;5.82;;;;;;;18.02;79.60;100450.78;4979958;28;20583;-77
2021/09/26 07:41:20;;;;;;;6.80;6.30;;;;;;;18.04;80.10;100461.47;4976140;28;20426;-77
2021/09/26 07:43:45;;;;;;;7.73;6.43;;;;;;;18.01;80.77;100476.56;4978416;28;20898;-77
2021/09/26 07:46:10;;;;;;;7.43;6.73;;;;;;;18.01;81.04;100479.31;4982584;28;20748;-78
2021/09/26 07:48:36;;;;;;;11.43;7.07;;;;;;;18.02;81.19;100478.22;4979183;28;20486;-77
2021/09/26 07:51:01;;;;;;;8.70;6.67;;;;;;;18.04;81.14;100477.94;4972358;28;20508;-77
2021/09/26 07:53:26;;;;;;;11.37;6.67;;;;;;;18.07;81.10;100467.19;4976735;28;20660;-77
2021/09/26 07:55:52;;;;;;;9.97;6.80;;;;;;;18.10;80.92;100457.56;4982315;28;20927;-77
2021/09/26 07:58:18;;;;;;;10.25;6.45;;;;;;;18.14;80.76;100455.88;4968636;28;20411;-78
2021/09/26 08:00:44;;;;;;;9.57;6.78;;;;;;;18.18;80.50;100445.91;4968122;28;20747;-77
2021/09/26 08:03:09;;;;;;;9.77;6.50;;;;;;;18.22;80.50;100444.22;4971059;28;20419;-79
2021/09/26 08:05:34;;;;;;;11.53;6.47;;;;;;;18.27;80.50;100435.13;4977820;28;20406;-77
2021/09/26 08:08:00;;;;;;;8.60;6.63;;;;;;;18.30;80.37;100440.00;4974099;28;20895;-77
2021/09/26 08:10:25;;;;;;;8.27;7.20;;;;;;;18.34;80.70;100433.59;4974630;28;20412;-77
2021/09/26 08:12:50;;;;;;;11.20;7.37;;;;;;;18.36;81.23;100430.59;5004547;28;20953;-77
2021/09/26 08:15:16;;;;;;;10.13;7.63;;;;;;;18.38;81.63;100426.41;5013680;28;20408;-77
2021/09/26 08:17:41;;;;;;;8.50;7.17;;;;;;;18.40;81.30;100439.84;5012341;28;20451;-78
2021/09/26 08:20:07;;;;;;;8.45;7.07;;;;;;;18.43;81.41;100445.56;5012705;28;20420;-77
2021/09/26 08:22:33;;;;;;;10.90;7.60;;;;;;;18.46;81.43;100444.16;5013799;28;20447;-77
2021/09/26 08:25:00;;;;;;;7.57;6.87;;;;;;;18.47;81.05;100443.03;5000147;28;20409;-77
2021/09/26 08:27:25;;;;;;;11.07;7.60;;;;;;;18.48;81.09;100445.47;5013407;28;20416;-77
2021/09/26 08:29:51;;;;;;;10.05;7.60;;;;;;;18.49;81.05;100451.78;5011067;28;20512;-77
2021/09/26 08:32:16;;;;;;;14.33;8.27;;;;;;;18.50;81.32;100465.25;5012978;28;20947;-77
2021/09/26 08:34:41;;;;;;;8.00;7.20;;;;;;;18.50;81.61;100472.66;5010667;28;20397;-77
2021/09/26 08:37:07;;;;;;;9.10;7.90;;;;;;;18.48;81.21;100486.63;5013061;28;20922;-77
2021/09/26 08:39:32;;;;;;;8.40;7.57;;;;;;;18.40;81.47;100489.25;4995849;28;20485;-77
2021/09/26 08:41:58;;;;;;;12.87;8.13;;;;;;;18.37;81.69;100484.34;5013270;28;20408;-77
2021/09/26 08:44:25;;;;;;;10.80;8.55;;;;;;;18.36;81.91;100489.03;5013497;28;20409;-77
2021/09/26 08:46:52;;;;;;;9.13;8.30;;;;;;;18.34;81.94;100504.16;5012734;28;20712;-77
2021/09/26 08:49:18;;;;;;;10.00;8.90;;;;;;;18.34;82.15;100504.94;5012931;28;20428;-77
2021/09/26 08:51:48;;;;;;;10.85;9.10;;;;;;;18.34;82.14;100504.16;4995375;28;20408;-77
2021/09/26 08:54:13;;;;;;;13.82;9.77;;;;;;;18.32;82.17;100493.47;5014074;28;20405;-77
2021/09/26 08:56:41;;;;;;;11.48;8.95;;;;;;;18.40;82.13;100502.97;5004239;28;20420;-77
2021/09/26 08:59:08;;;;;;;15.60;9.07;;;;;;;18.44;82.01;100496.56;5011243;28;20404;-78
2021/09/26 09:01:33;;;;;;;13.20;9.70;;;;;;;18.52;81.70;100492.38;5007931;28;20892;-78
2021/09/26 09:03:58;;;;;;;11.33;8.70;;;;;;;18.55;81.58;100500.03;5010217;28;20415;-77
2021/09/26 09:06:44;;;;;;;13.30;9.23;;;;;;;18.59;81.47;100501.88;5007332;28;20417;-77
2021/09/26 09:09:15;;;;;;;10.57;8.77;;;;;;;18.60;81.57;100505.47;5018916;28;20429;-77
2021/09/26 09:12:04;;;;;;;11.53;9.77;;;;;;;18.58;81.55;100497.50;4999586;28;20468;-77
2021/09/26 09:14:56;;;;;;;12.52;9.80;;;;;;;18.53;81.94;100500.34;5006026;28;20451;-77
2021/09/26 09:17:26;;;;;;;11.95;9.07;;;;;;;18.52;82.11;100514.34;5001089;28;20399;-78
2021/09/26 09:20:16;;;;;;;12.65;9.30;;;;;;;18.56;81.97;100513.47;4994700;28;20448;-78
2021/09/26 09:22:43;;;;;;;15.47;9.17;;;;;;;18.69;82.09;100506.41;4993686;28;20469;-77
2021/09/26 09:25:41;;;;;;;9.90;7.93;;;;;;;18.81;81.48;100517.75;4984506;28;20424;-77
2021/09/26 09:28:12;;;;;;;9.85;8.07;;;;;;;18.90;81.39;100515.94;4984256;28;20425;-77
2021/09/26 09:30:52;;;;;;;11.90;8.20;;;;;;;18.98;80.96;100518.03;4985424;28;20413;-77
2021/09/26 09:33:20;;;;;;;11.70;8.63;;;;;;;19.06;81.10;100514.63;4983462;28;20441;-77
2021/09/26 09:35:48;;;;;;;10.73;8.93;;;;;;;19.04;80.80;100518.75;4983026;28;22160;-77
2021/09/26 09:38:34;;;;;;;13.02;9.32;;;;;;;19.02;81.03;100513.59;4982322;28;20414;-77
2021/09/26 09:40:59;;;;;;;14.00;10.07;;;;;;;19.07;81.18;100518.97;4987762;28;20456;-77
2021/09/26 09:43:27;;;;;;;14.50;9.30;;;;;;;19.12;81.26;100515.34;4983421;28;21226;-76
2021/09/26 09:45:56;;;;;;;14.13;9.93;;;;;;;19.14;80.89;100513.09;4983652;28;20414;-77
2021/09/26 09:48:24;;;;;;;11.07;9.82;;;;;;;19.09;81.12;100510.44;4980315;28;20424;-77
2021/09/26 09:50:59;;;;;;;12.10;9.50;;;;;;;19.08;81.18;100508.81;4987195;28;20420;-77
2021/09/26 09:53:30;;;;;;;12.75;10.13;;;;;;;19.07;81.20;100508.00;4979734;28;20419;-77
2021/09/26 09:56:04;;;;;;;16.20;10.27;;;;;;;19.11;80.96;100506.28;4967381;28;20822;-77
2021/09/26 09:58:36;;;;;;;12.77;10.23;;;;;;;19.11;80.90;100500.78;4985070;28;20923;-77
2021/09/26 10:01:04;;;;;;;11.20;10.05;;;;;;;19.20;80.93;100505.63;4984996;28;20462;-76
2021/09/26 10:03:41;;;;;;;11.75;10.32;;;;;;;19.28;80.42;100500.22;5001862;28;20400;-77
2021/09/26 10:06:22;;;;;;;13.75;10.35;;;;;;;19.44;80.11;100498.88;5006665;28;20526;-79
2021/09/26 10:08:47;;;;;;;12.77;10.20;;;;;;;19.60;79.98;100496.66;4992227;28;20451;-77
2021/09/26 10:11:13;;;;;;;11.27;10.07;;;;;;;19.77;79.20;100485.88;4989283;28;20413;-78
2021/09/26 10:13:38;;;;;;;12.63;10.83;;;;;;;19.86;79.26;100485.97;4991916;28;20420;-78
2021/09/26 10:16:06;;;;;;;11.53;9.67;;;;;;;19.91;78.35;100488.63;5005052;28;20444;-78
2021/09/26 10:18:33;;;;;;;11.98;9.88;;;;;;;19.92;78.21;100485.56;5014047;28;20485;-78
2021/09/26 10:21:00;;;;;;;11.98;9.60;;;;;;;20.07;77.93;100492.69;5004563;28;20765;-78
2021/09/26 10:23:26;;;;;;;12.93;9.82;;;;;;;20.36;76.92;100487.69;4999511;28;20410;-78
2021/09/26 10:25:54;;;;;;;12.83;10.50;;;;;;;20.73;76.23;100491.25;4995552;28;20470;-78
2021/09/26 10:28:23;;;;;;;13.03;10.77;;;;;;;21.25;74.13;100489.72;4994966;28;20435;-80
2021/09/26 10:30:49;;;;;;;12.77;10.45;;;;;;;21.55;72.12;100486.16;5002837;28;20420;-78
2021/09/26 10:33:14;;;;;;;11.33;10.20;;;;;;;21.99;70.78;100485.25;4999770;28;20776;-77
2021/09/26 10:35:40;;;;;;;16.90;11.23;;;;;;;22.81;68.14;100482.47;5006600;28;20445;-78
2021/09/26 10:38:10;;;;;;;10.90;8.50;;;;;;;23.48;65.82;100487.44;5005019;28;20413;-79
2021/09/26 10:40:37;;;;;;;11.77;9.00;;;;;;;23.76;64.91;100485.84;5003401;28;20829;-78
2021/09/26 10:43:28;;;;;;;9.68;8.18;;;;;;;24.39;62.66;100486.84;5002430;28;20500;-79
2021/09/26 10:46:11;;;;;;;14.73;8.07;;;;;;;24.83;61.36;100477.88;5000481;28;20463;-78
2021/09/26 10:48:55;;;;;;;9.65;7.50;;;;;;;25.24;60.15;100488.91;4998369;28;20428;-77
2021/09/26 10:52:00;;;;;;;9.45;7.32;;;;;;;25.41;59.49;100490.69;4997571;28;20523;-80
2021/09/26 10:54:34;;;;;;;8.70;7.77;;;;;;;25.41;59.24;100487.94;5003190;28;20472;-78
2021/09/26 10:57:12;;;;;;;11.43;8.52;;;;;;;25.38;59.02;100487.81;4989545;28;20828;-80
2021/09/26 10:59:43;;;;;;;9.18;8.32;;;;;;;25.65;58.40;100485.22;5002303;28;20410;-79
2021/09/26 11:02:23;;;;;;;12.93;7.47;;;;;;;25.81;57.60;100485.38;5001378;28;20404;-79
2021/09/26 11:04:51;;;;;;;10.40;8.15;;;;;;;25.49;58.13;100491.75;5018499;28;20428;-78
2021/09/26 11:07:18;;;;;;;9.90;7.95;;;;;;;25.17;58.51;100483.13;5008938;28;20417;-78
2021/09/26 11:09:57;;;;;;;8.98;8.07;;;;;;;24.56;60.98;100495.03;5005527;28;20911;-80
2021/09/26 11:12:41;;;;;;;10.27;7.13;;;;;;;24.01;62.88;100489.63;5002695;28;20432;-78
2021/09/26 11:15:14;;;;;;;10.15;7.90;;;;;;;23.79;64.04;100490.72;4998111;28;20417;-78
2021/09/26 11:17:55;;;;;;;12.68;8.43;;;;;;;23.76;64.79;100478.38;4998641;28;20412;-78
2021/09/26 11:20:29;;;;;;;10.17;8.53;;;;;;;23.89;65.05;100493.13;5004937;28;20412;-77
2021/09/26 11:23:03;;;;;;;8.30;7.25;;;;;;;24.16;63.72;100489.94;4999929;28;21053;-78
2021/09/26 11:26:00;;;;;;;10.07;7.43;;;;;;;25.01;60.86;100487.69;5003346;28;20413;-77